Time;durP1;ratioP1;P1;durP2;ratioP2;P2;SDS_P1;SDS_P2;PMS_P1;PMS_P2;Temp;Humidity;BMP_temperature;BMP_pressure;BME280_temperature;BME280_humidity;BME280_pressure;Samples;Min_cycle;Max_cycle;Signal;HPM_P1;HPM_P2
2024/02/14 00:01:51;;;;;;;14.45;6.30;;;6.20;99.90;;;;;;5062002;28;20032;-66
2024/02/14 00:04:16;;;;;;;14.13;6.90;;;6.20;99.90;;;;;;5060317;28;20454;-69
2024/02/14 00:06:43;;;;;;;12.00;6.25;;;6.30;99.90;;;;;;5062025;28;20079;-66
2024/02/14 00:09:08;;;;;;;9.82;6.25;;;6.20;99.90;;;;;;5061977;28;20033;-66
2024/02/14 00:11:34;;;;;;;12.88;6.72;;;6.20;99.90;;;;;;5061508;28;20032;-67
2024/02/14 00:14:00;;;;;;;15.15;6.90;;;6.20;99.90;;;;;;5061624;28;20082;-68
2024/02/14 00:16:27;;;;;;;16.10;6.65;;;6.30;99.90;;;;;;5061246;28;20021;-66
2024/02/14 00:18:53;;;;;;;11.32;7.13;;;6.30;99.90;;;;;;5061393;28;20021;-69
2024/02/14 00:21:18;;;;;;;10.60;6.53;;;6.20;99.90;;;;;;5059929;28;20041;-65
2024/02/14 00:23:44;;;;;;;17.25;6.78;;;6.10;99.90;;;;;;5061525;28;20053;-66
2024/02/14 00:26:09;;;;;;;15.75;7.20;;;6.10;99.90;;;;;;5061688;28;20017;-66
2024/02/14 00:28:35;;;;;;;14.73;7.10;;;6.20;99.90;;;;;;5061693;28;20068;-65
2024/02/14 00:31:00;;;;;;;18.38;7.50;;;6.10;99.90;;;;;;5061346;28;20036;-66
2024/02/14 00:33:26;;;;;;;12.18;7.22;;;6.20;99.90;;;;;;5060443;28;20021;-66
2024/02/14 00:35:52;;;;;;;14.68;7.60;;;6.20;99.90;;;;;;5061663;28;20032;-67
2024/02/14 00:38:17;;;;;;;16.23;8.00;;;6.00;99.90;;;;;;5061360;28;20036;-68
2024/02/14 00:40:43;;;;;;;14.07;7.20;;;6.10;99.90;;;;;;5061585;28;20033;-66
2024/02/14 00:43:08;;;;;;;14.18;7.97;;;6.10;99.90;;;;;;5061629;28;20025;-66
2024/02/14 00:45:34;;;;;;;19.60;8.48;;;6.10;99.90;;;;;;5061303;28;20026;-66
2024/02/14 00:48:03;;;;;;;13.82;8.02;;;6.10;99.90;;;;;;5061309;28;20040;-68
2024/02/14 00:50:29;;;;;;;18.55;8.60;;;6.10;99.90;;;;;;5059545;28;20477;-66
2024/02/14 00:52:54;;;;;;;19.98;8.85;;;6.10;99.90;;;;;;5060977;28;20018;-67
2024/02/14 00:55:20;;;;;;;21.90;9.05;;;6.20;99.90;;;;;;5061474;28;20028;-67
2024/02/14 00:57:46;;;;;;;16.20;9.27;;;6.00;99.90;;;;;;5060987;28;20033;-68
2024/02/14 01:00:11;;;;;;;21.77;10.27;;;6.00;99.90;;;;;;5061241;28;20150;-67
2024/02/14 01:02:37;;;;;;;20.33;9.15;;;6.00;99.90;;;;;;5061398;28;20033;-67
2024/02/14 01:05:04;;;;;;;20.58;9.63;;;6.10;99.90;;;;;;5061260;28;20025;-65
2024/02/14 01:07:29;;;;;;;22.05;10.18;;;6.00;99.90;;;;;;5060661;28;20484;-66
2024/02/14 01:09:55;;;;;;;17.73;9.50;;;6.00;99.90;;;;;;5061518;28;20021;-66
2024/02/14 01:12:20;;;;;;;23.27;10.18;;;6.00;99.90;;;;;;5061023;28;20025;-68
2024/02/14 01:14:46;;;;;;;19.65;9.40;;;6.00;99.90;;;;;;5061345;28;20024;-68
2024/02/14 01:17:12;;;;;;;20.92;10.50;;;6.00;99.90;;;;;;5061463;28;20025;-67
2024/02/14 01:19:37;;;;;;;21.55;10.57;;;6.00;99.90;;;;;;5060792;28;20033;-68
2024/02/14 01:22:03;;;;;;;18.75;10.13;;;6.00;99.90;;;;;;5061202;28;20039;-67
2024/02/14 01:24:30;;;;;;;23.15;11.75;;;6.00;99.90;;;;;;5061197;28;20413;-67
2024/02/14 01:26:55;;;;;;;20.70;10.93;;;6.00;99.90;;;;;;5061805;28;20516;-66
2024/02/14 01:29:22;;;;;;;25.15;11.65;;;6.00;99.90;;;;;;5064928;28;20124;-67
2024/02/14 01:31:48;;;;;;;27.75;11.80;;;6.10;99.90;;;;;;5064668;28;20029;-68
2024/02/14 01:34:14;;;;;;;27.00;11.50;;;6.10;99.90;;;;;;5064581;28;20056;-68
2024/02/14 01:36:41;;;;;;;23.13;10.82;;;6.00;99.90;;;;;;5064809;28;20025;-68
2024/02/14 01:39:07;;;;;;;20.92;10.23;;;6.00;99.90;;;;;;5064591;28;20017;-68
2024/02/14 01:41:33;;;;;;;20.25;10.70;;;6.00;99.90;;;;;;5064169;28;20013;-66
2024/02/14 01:43:59;;;;;;;22.23;10.52;;;6.00;99.90;;;;;;5064707;28;20029;-67
2024/02/14 01:46:25;;;;;;;24.85;10.32;;;6.10;99.90;;;;;;5064565;28;20017;-65
2024/02/14 01:48:51;;;;;;;19.83;10.70;;;6.00;99.90;;;;;;5063157;28;20172;-67
2024/02/14 01:51:17;;;;;;;27.50;11.95;;;6.00;99.90;;;;;;5063148;28;20090;-67
2024/02/14 01:53:43;;;;;;;26.42;11.27;;;6.00;99.90;;;;;;5063702;28;20073;-68
2024/02/14 01:56:09;;;;;;;28.30;11.63;;;6.10;99.90;;;;;;5063231;28;20033;-67
2024/02/14 01:58:35;;;;;;;27.75;11.80;;;6.00;99.90;;;;;;5063553;28;20043;-68
2024/02/14 02:01:02;;;;;;;22.90;10.98;;;6.10;99.90;;;;;;5063775;28;20021;-67
2024/02/14 02:03:28;;;;;;;24.33;11.13;;;6.10;99.90;;;;;;5063297;28;20023;-67
2024/02/14 02:05:54;;;;;;;29.27;11.55;;;6.10;99.90;;;;;;5063362;28;20116;-67
2024/02/14 02:08:21;;;;;;;27.10;11.45;;;6.10;99.90;;;;;;5063026;28;20102;-67
2024/02/14 02:10:46;;;;;;;24.05;11.50;;;6.10;99.90;;;;;;5063045;28;20097;-69
2024/02/14 02:13:12;;;;;;;20.25;10.23;;;6.20;99.90;;;;;;5060430;28;20048;-68
2024/02/14 02:15:38;;;;;;;23.30;10.50;;;6.10;99.90;;;;;;5063247;28;20021;-69
2024/02/14 02:18:05;;;;;;;20.73;10.05;;;6.10;99.90;;;;;;5063009;28;20041;-70
2024/02/14 02:20:32;;;;;;;21.20;10.90;;;6.10;99.90;;;;;;5063255;28;20025;-68
2024/02/14 02:22:59;;;;;;;28.30;11.73;;;6.10;99.90;;;;;;5060945;28;20048;-67
2024/02/14 02:25:26;;;;;;;22.20;10.13;;;6.10;99.90;;;;;;5062510;28;20029;-67
2024/02/14 02:27:54;;;;;;;30.60;11.60;;;6.20;99.90;;;;;;5062778;28;20032;-67
2024/02/14 02:30:20;;;;;;;23.88;10.88;;;6.10;99.90;;;;;;5061774;28;20072;-67
2024/02/14 02:32:46;;;;;;;24.48;12.60;;;6.20;99.90;;;;;;5062599;28;20445;-68
2024/02/14 02:35:11;;;;;;;23.27;12.40;;;6.20;99.90;;;;;;5062477;28;20108;-68
2024/02/14 02:37:37;;;;;;;30.90;12.80;;;6.10;99.90;;;;;;5062405;28;20036;-67
2024/02/14 02:40:03;;;;;;;27.02;11.68;;;6.10;99.90;;;;;;5063448;28;20339;-67
2024/02/14 02:42:29;;;;;;;29.55;12.25;;;6.10;99.90;;;;;;5063456;28;20059;-68
2024/02/14 02:44:54;;;;;;;22.45;12.27;;;6.10;99.90;;;;;;5062580;28;20032;-69
2024/02/14 02:47:20;;;;;;;28.08;13.52;;;6.10;99.90;;;;;;5063438;28;20057;-67
2024/02/14 02:49:46;;;;;;;28.15;12.68;;;6.10;99.90;;;;;;5062792;28;20029;-66
2024/02/14 02:52:12;;;;;;;31.20;13.27;;;6.10;99.90;;;;;;5062941;28;20028;-68
2024/02/14 02:54:43;;;;;;;31.77;12.63;;;6.20;99.90;;;;;;5062777;28;21059;-67
2024/02/14 02:57:10;;;;;;;30.23;12.30;;;6.10;99.90;;;;;;5063034;28;20021;-67
2024/02/14 02:59:36;;;;;;;34.65;12.48;;;6.10;99.90;;;;;;5062927;28;20024;-65
2024/02/14 03:02:02;;;;;;;32.72;13.05;;;6.10;99.90;;;;;;5063171;28;20028;-65
2024/02/14 03:04:28;;;;;;;21.98;9.70;;;6.10;99.90;;;;;;5062716;28;20112;-66
2024/02/14 03:06:54;;;;;;;28.65;11.70;;;6.10;99.90;;;;;;5061383;28;20053;-69
2024/02/14 03:09:19;;;;;;;34.65;14.05;;;6.10;99.90;;;;;;5062953;28;20037;-66
2024/02/14 03:11:48;;;;;;;29.38;12.77;;;6.20;99.90;;;;;;5062620;28;20095;-67
2024/02/14 03:14:14;;;;;;;20.40;10.77;;;6.10;99.90;;;;;;5062845;28;20078;-69
2024/02/14 03:16:40;;;;;;;26.50;13.23;;;6.10;99.90;;;;;;5062854;28;20633;-67
2024/02/14 03:19:05;;;;;;;32.92;12.52;;;6.10;99.90;;;;;;5062272;28;20425;-68
2024/02/14 03:21:35;;;;;;;29.63;15.10;;;6.10;99.90;;;;;;5062660;28;20764;-68
2024/02/14 03:24:04;;;;;;;35.05;14.52;;;6.10;99.90;;;;;;5062615;28;20021;-67
2024/02/14 03:26:33;;;;;;;32.55;14.05;;;6.20;99.90;;;;;;5062107;28;20024;-66
2024/02/14 03:28:59;;;;;;;32.00;15.27;;;6.10;99.90;;;;;;5062312;28;20100;-67
2024/02/14 03:31:25;;;;;;;28.80;15.15;;;6.10;99.90;;;;;;5062502;28;20028;-68
2024/02/14 03:33:52;;;;;;;38.10;16.27;;;6.10;99.90;;;;;;5062249;28;20009;-69
2024/02/14 03:36:18;;;;;;;37.10;15.30;;;6.10;99.90;;;;;;5062718;28;20028;-69
2024/02/14 03:38:46;;;;;;;37.15;16.42;;;6.10;99.90;;;;;;5061785;28;20064;-68
2024/02/14 03:41:13;;;;;;;37.70;16.58;;;6.10;99.90;;;;;;5062560;28;20056;-67
2024/02/14 03:43:38;;;;;;;42.40;17.88;;;6.10;99.90;;;;;;5062343;28;20029;-68
2024/02/14 03:46:05;;;;;;;29.42;13.88;;;6.10;99.90;;;;;;5062065;28;20040;-70
2024/02/14 03:48:30;;;;;;;35.72;14.73;;;6.10;99.90;;;;;;5061591;28;20040;-69
2024/02/14 03:50:57;;;;;;;37.38;15.80;;;6.10;99.90;;;;;;5061515;28;20025;-69
2024/02/14 03:53:23;;;;;;;43.22;17.90;;;6.10;99.90;;;;;;5061827;28;20028;-67
2024/02/14 03:55:49;;;;;;;43.95;18.20;;;6.00;99.90;;;;;;5062230;28;20021;-67
2024/02/14 03:58:16;;;;;;;40.60;16.98;;;6.10;99.90;;;;;;5062259;28;20032;-67
2024/02/14 04:00:43;;;;;;;37.90;18.05;;;6.10;99.90;;;;;;5061631;28;20043;-70
2024/02/14 04:03:12;;;;;;;38.38;18.52;;;6.10;99.90;;;;;;5062138;28;20108;-65
2024/02/14 04:05:38;;;;;;;45.55;18.08;;;6.10;99.90;;;;;;5061253;28;20032;-66
2024/02/14 04:08:06;;;;;;;43.88;18.17;;;6.10;99.90;;;;;;5061573;28;20052;-67
2024/02/14 04:10:33;;;;;;;48.67;20.55;;;6.20;99.90;;;;;;5061375;28;20386;-67
2024/02/14 04:12:58;;;;;;;51.03;19.95;;;6.20;99.90;;;;;;5061745;28;20017;-67
2024/02/14 04:15:24;;;;;;;49.70;19.17;;;6.10;99.90;;;;;;5060289;28;20029;-68
2024/02/14 04:17:50;;;;;;;50.65;20.42;;;6.20;99.90;;;;;;5061957;28;20099;-69
2024/02/14 04:20:15;;;;;;;53.53;20.77;;;6.20;99.90;;;;;;5061486;28;20025;-67
2024/02/14 04:22:44;;;;;;;57.97;20.33;;;6.20;99.90;;;;;;5061586;28;20405;-68
2024/02/14 04:25:10;;;;;;;47.85;19.45;;;6.20;99.90;;;;;;5059974;28;20140;-65
2024/02/14 04:27:35;;;;;;;50.50;22.05;;;6.20;99.90;;;;;;5059732;28;20489;-68
2024/02/14 04:30:02;;;;;;;53.75;21.42;;;6.20;99.90;;;;;;5061620;28;20085;-69
2024/02/14 04:32:27;;;;;;;49.35;19.13;;;6.20;99.90;;;;;;5061638;28;20520;-69
2024/02/14 04:34:53;;;;;;;66.70;21.48;;;6.30;99.90;;;;;;5061345;28;20047;-67
2024/02/14 04:37:19;;;;;;;63.05;22.27;;;6.20;99.90;;;;;;5061847;28;20032;-68
2024/02/14 04:39:45;;;;;;;51.55;19.65;;;6.20;99.90;;;;;;5061688;28;20085;-70
2024/02/14 04:42:10;;;;;;;53.35;19.90;;;6.20;99.90;;;;;;5061329;28;20049;-67
2024/02/14 04:44:36;;;;;;;51.88;21.42;;;6.20;99.90;;;;;;5061610;28;20018;-66
2024/02/14 04:47:02;;;;;;;53.55;20.33;;;6.20;99.90;;;;;;5061394;28;20155;-66
2024/02/14 04:49:29;;;;;;;60.97;21.48;;;6.20;99.90;;;;;;5061272;28;20087;-68
2024/02/14 04:51:55;;;;;;;62.70;20.75;;;6.20;99.90;;;;;;5061663;28;20385;-69
2024/02/14 04:54:20;;;;;;;55.67;19.77;;;6.20;99.90;;;;;;5061130;28;21578;-65
2024/02/14 04:56:46;;;;;;;56.63;20.83;;;6.20;99.90;;;;;;5059754;28;20033;-69
2024/02/14 04:59:12;;;;;;;49.42;18.40;;;6.20;99.90;;;;;;5061161;28;20033;-69
2024/02/14 05:01:39;;;;;;;60.10;20.38;;;6.20;99.90;;;;;;5062145;28;20032;-67
2024/02/14 05:04:06;;;;;;;62.72;21.52;;;6.20;99.90;;;;;;5065097;28;20118;-67
2024/02/14 05:06:32;;;;;;;69.60;22.70;;;6.30;99.90;;;;;;5061716;28;20045;-68
2024/02/14 05:08:58;;;;;;;65.07;22.33;;;6.20;99.90;;;;;;5062812;28;20061;-67
2024/02/14 05:11:24;;;;;;;60.25;21.85;;;6.20;99.90;;;;;;5065477;28;20056;-64
2024/02/14 05:13:50;;;;;;;64.03;21.58;;;6.20;99.90;;;;;;5065858;28;20049;-65
2024/02/14 05:16:19;;;;;;;65.18;23.20;;;6.10;99.90;;;;;;5065361;28;20029;-65
2024/02/14 05:18:45;;;;;;;70.30;22.65;;;6.30;99.90;;;;;;5064957;28;20397;-67
2024/02/14 05:21:11;;;;;;;61.25;23.55;;;6.20;99.90;;;;;;5065061;28;20031;-65
2024/02/14 05:23:36;;;;;;;67.10;21.75;;;6.20;99.90;;;;;;5064613;28;20028;-65
2024/02/14 05:26:06;;;;;;;64.22;21.85;;;6.20;99.90;;;;;;5064996;28;20059;-66
2024/02/14 05:28:32;;;;;;;69.35;22.80;;;6.30;99.90;;;;;;5064180;28;20037;-66
2024/02/14 05:30:59;;;;;;;62.08;21.25;;;6.30;99.90;;;;;;5063974;28;20040;-66
2024/02/14 05:33:25;;;;;;;62.97;22.35;;;6.20;99.90;;;;;;5064543;28;20044;-64
2024/02/14 05:35:52;;;;;;;71.45;23.40;;;6.30;99.90;;;;;;5064527;28;20029;-66
2024/02/14 05:38:21;;;;;;;80.60;25.48;;;6.30;99.90;;;;;;5064719;28;20076;-65
2024/02/14 05:40:47;;;;;;;76.80;24.63;;;6.30;99.90;;;;;;5064350;28;20104;-66
2024/02/14 05:43:13;;;;;;;95.72;27.15;;;6.30;99.90;;;;;;5064040;28;20040;-65
2024/02/14 05:45:39;;;;;;;90.22;25.45;;;6.30;99.90;;;;;;5064362;28;20025;-65
2024/02/14 05:48:05;;;;;;;88.47;26.63;;;6.30;99.90;;;;;;5064444;28;20043;-64
2024/02/14 05:50:31;;;;;;;85.20;25.70;;;6.30;99.90;;;;;;5061208;28;20040;-67
2024/02/14 05:52:57;;;;;;;91.45;26.48;;;6.40;99.90;;;;;;5064059;28;20035;-65
2024/02/14 05:55:24;;;;;;;99.80;26.73;;;6.30;99.90;;;;;;5063885;28;20057;-70
2024/02/14 05:57:52;;;;;;;96.90;27.33;;;6.50;99.90;;;;;;5062858;28;20036;-68
2024/02/14 06:00:18;;;;;;;101.60;28.15;;;6.40;99.90;;;;;;5061575;28;20036;-65
2024/02/14 06:02:44;;;;;;;90.03;26.23;;;6.40;99.90;;;;;;5062698;28;20032;-68
2024/02/14 06:05:10;;;;;;;93.43;25.73;;;6.40;99.90;;;;;;5063413;28;20029;-68
2024/02/14 06:07:40;;;;;;;93.47;27.02;;;6.50;99.90;;;;;;5062415;28;20041;-66
2024/02/14 06:10:09;;;;;;;99.68;28.05;;;6.40;99.90;;;;;;5061324;28;20092;-67
2024/02/14 06:12:34;;;;;;;88.82;27.45;;;6.50;99.90;;;;;;5058743;28;20040;-67
2024/02/14 06:15:03;;;;;;;98.15;26.67;;;6.50;99.90;;;;;;5061650;28;20025;-68
2024/02/14 06:17:29;;;;;;;93.68;26.50;;;6.50;99.90;;;;;;5060140;28;20025;-66
2024/02/14 06:19:55;;;;;;;97.13;27.17;;;6.50;99.90;;;;;;5059643;28;20036;-68
2024/02/14 06:22:21;;;;;;;100.22;27.55;;;6.50;99.90;;;;;;5063123;28;20032;-66
2024/02/14 06:24:49;;;;;;;101.60;28.80;;;6.50;99.90;;;;;;5062298;28;20032;-67
2024/02/14 06:27:15;;;;;;;125.97;29.55;;;6.60;99.90;;;;;;5058400;28;20025;-67
2024/02/14 06:29:44;;;;;;;97.55;27.00;;;6.60;99.90;;;;;;5060930;28;20025;-63
2024/02/14 06:32:12;;;;;;;112.30;29.20;;;6.60;99.90;;;;;;5058932;28;20126;-65
2024/02/14 06:34:38;;;;;;;147.70;32.38;;;6.60;99.90;;;;;;5061023;28;20059;-66
2024/02/14 06:37:04;;;;;;;99.75;27.55;;;6.60;99.90;;;;;;5060550;28;20025;-66
2024/02/14 06:39:30;;;;;;;121.75;29.60;;;6.60;99.90;;;;;;5063244;28;20028;-65
2024/02/14 06:41:57;;;;;;;88.82;26.30;;;6.70;99.90;;;;;;5063949;28;20025;-66
2024/02/14 06:44:23;;;;;;;118.88;28.90;;;6.70;99.90;;;;;;5062648;28;20071;-66
2024/02/14 06:46:48;;;;;;;108.93;27.92;;;6.80;99.90;;;;;;5061999;28;20025;-67
2024/02/14 06:49:15;;;;;;;93.75;27.45;;;6.80;99.90;;;;;;5063230;28;20132;-69
2024/02/14 06:51:41;;;;;;;104.38;26.35;;;6.80;99.90;;;;;;5058932;28;20036;-67
2024/02/14 06:54:06;;;;;;;107.18;26.90;;;6.90;99.90;;;;;;5061809;28;20033;-66
2024/02/14 06:56:35;;;;;;;110.40;27.17;;;6.90;99.90;;;;;;5060362;28;20463;-66
2024/02/14 06:59:02;;;;;;;104.13;27.25;;;6.90;99.90;;;;;;5062480;28;20056;-67
2024/02/14 07:01:28;;;;;;;98.63;26.98;;;6.90;99.90;;;;;;5057627;28;20072;-66
2024/02/14 07:03:53;;;;;;;107.10;27.23;;;7.00;99.90;;;;;;5061954;28;20416;-66
2024/02/14 07:06:19;;;;;;;114.32;29.08;;;7.10;99.90;;;;;;5060861;28;20052;-67
2024/02/14 07:08:44;;;;;;;144.75;32.25;;;7.10;99.90;;;;;;5062007;28;20077;-69
2024/02/14 07:11:11;;;;;;;115.97;29.15;;;7.10;99.90;;;;;;5061512;28;20025;-65
2024/02/14 07:13:36;;;;;;;141.73;30.77;;;7.10;99.90;;;;;;5061149;28;20025;-67
2024/02/14 07:16:02;;;;;;;113.72;29.30;;;7.10;99.90;;;;;;5062011;28;20027;-68
2024/02/14 07:18:27;;;;;;;135.68;32.90;;;7.20;99.90;;;;;;5063133;28;20025;-66
2024/02/14 07:20:53;;;;;;;135.32;32.15;;;7.20;99.90;;;;;;5061491;28;20032;-67
2024/02/14 07:23:20;;;;;;;130.30;30.13;;;7.20;99.90;;;;;;5063449;28;20013;-69
2024/02/14 07:25:46;;;;;;;107.55;28.95;;;7.30;99.90;;;;;;5062362;28;20024;-66
2024/02/14 07:28:11;;;;;;;120.80;29.85;;;7.30;99.90;;;;;;5062847;28;20045;-66
2024/02/14 07:30:37;;;;;;;97.15;27.70;;;7.40;99.90;;;;;;5061509;28;20036;-65
2024/02/14 07:33:02;;;;;;;94.32;28.75;;;7.40;99.90;;;;;;5061686;28;20037;-66
2024/02/14 07:35:29;;;;;;;112.50;30.20;;;7.50;99.90;;;;;;5059817;28;20028;-65
2024/02/14 07:37:54;;;;;;;107.13;29.85;;;7.50;99.90;;;;;;5057877;28;20066;-66
2024/02/14 07:40:21;;;;;;;97.50;27.48;;;7.50;99.90;;;;;;5056222;28;20060;-66
2024/02/14 07:42:47;;;;;;;67.85;21.85;;;7.60;99.90;;;;;;5060609;28;20104;-67
2024/02/14 07:45:13;;;;;;;94.13;24.67;;;7.60;99.90;;;;;;5063005;28;20032;-66
2024/02/14 07:47:40;;;;;;;78.70;22.77;;;7.70;99.90;;;;;;5060975;28;20041;-65
2024/02/14 07:50:06;;;;;;;78.72;22.48;;;7.70;99.90;;;;;;5056909;28;20025;-65
2024/02/14 07:52:31;;;;;;;71.45;21.00;;;7.80;99.90;;;;;;5058034;28;20092;-65
2024/02/14 07:54:57;;;;;;;63.15;20.13;;;7.90;99.90;;;;;;5060764;28;20064;-67
2024/02/14 07:57:24;;;;;;;85.57;22.05;;;7.90;99.90;;;;;;5061987;28;20029;-67
2024/02/14 07:59:50;;;;;;;66.47;20.98;;;8.00;99.90;;;;;;5060030;28;20477;-66
2024/02/14 08:02:15;;;;;;;65.00;19.77;;;8.00;99.90;;;;;;5061420;28;20035;-66
2024/02/14 08:04:41;;;;;;;53.53;18.30;;;8.10;99.90;;;;;;5049126;28;20029;-66
2024/02/14 08:07:07;;;;;;;67.78;20.42;;;8.10;99.90;;;;;;5060723;28;20120;-64
2024/02/14 08:09:33;;;;;;;70.82;20.63;;;8.20;99.90;;;;;;5062287;28;20031;-65
2024/02/14 08:11:58;;;;;;;58.13;17.75;;;8.20;99.90;;;;;;5058242;28;20080;-65
2024/02/14 08:14:24;;;;;;;50.63;18.30;;;8.30;99.90;;;;;;5059778;28;20051;-67
2024/02/14 08:16:51;;;;;;;75.13;20.25;;;8.30;99.90;;;;;;5058846;28;20029;-65
2024/02/14 08:19:18;;;;;;;61.85;20.77;;;8.30;99.90;;;;;;5058548;28;20021;-66
2024/02/14 08:21:44;;;;;;;73.50;21.38;;;8.30;99.90;;;;;;5061396;28;20029;-67
2024/02/14 08:24:09;;;;;;;75.45;20.00;;;8.30;99.90;;;;;;5060475;28;20033;-67
2024/02/14 08:26:35;;;;;;;61.35;19.33;;;8.30;99.90;;;;;;5060869;28;20489;-66
2024/02/14 08:29:01;;;;;;;58.65;18.73;;;8.40;99.90;;;;;;5059191;28;20037;-66
2024/02/14 08:31:27;;;;;;;55.85;17.25;;;8.50;99.90;;;;;;5059785;28;20051;-65
2024/02/14 08:33:53;;;;;;;50.05;17.85;;;8.50;99.90;;;;;;5058425;28;20084;-65
2024/02/14 08:36:19;;;;;;;48.03;17.60;;;8.50;99.90;;;;;;5061959;28;20025;-66
2024/02/14 08:38:44;;;;;;;60.83;18.48;;;8.60;99.90;;;;;;5063324;28;20055;-69
2024/02/14 08:41:10;;;;;;;56.75;18.00;;;8.60;99.90;;;;;;5066367;28;20025;-66
2024/02/14 08:43:36;;;;;;;58.42;20.00;;;8.60;99.90;;;;;;5065252;28;20024;-64
2024/02/14 08:46:02;;;;;;;47.70;17.45;;;8.70;99.90;;;;;;5065956;28;20103;-66
2024/02/14 08:48:30;;;;;;;48.83;16.40;;;8.70;99.90;;;;;;5065603;28;20040;-66
2024/02/14 08:50:56;;;;;;;51.03;17.30;;;8.70;99.90;;;;;;5065693;28;20096;-66
2024/02/14 08:53:22;;;;;;;39.63;14.85;;;8.80;99.90;;;;;;5063395;28;20021;-70
2024/02/14 08:55:48;;;;;;;43.85;16.50;;;8.80;99.90;;;;;;5059643;28;20025;-66
2024/02/14 08:58:13;;;;;;;47.33;16.20;;;8.90;99.90;;;;;;5062256;28;20036;-66
2024/02/14 09:00:39;;;;;;;43.70;15.75;;;8.90;99.90;;;;;;5064257;28;20025;-65
2024/02/14 09:03:05;;;;;;;36.55;13.77;;;8.90;99.90;;;;;;5065584;28;20033;-65
2024/02/14 09:05:31;;;;;;;32.95;13.20;;;9.00;99.90;;;;;;5059687;28;20047;-68
2024/02/14 09:07:57;;;;;;;39.83;14.32;;;9.00;99.90;;;;;;5064079;28;20477;-66
2024/02/14 09:10:22;;;;;;;35.13;13.15;;;9.00;99.90;;;;;;5063585;28;20080;-67
2024/02/14 09:12:48;;;;;;;28.95;11.23;;;9.10;99.90;;;;;;5062641;28;20029;-66
2024/02/14 09:15:14;;;;;;;30.30;11.75;;;9.10;99.90;;;;;;5065431;28;20033;-67
2024/02/14 09:17:40;;;;;;;28.65;10.70;;;9.20;99.90;;;;;;5065228;28;20048;-66
2024/02/14 09:20:09;;;;;;;25.70;9.70;;;9.20;99.90;;;;;;5053780;28;20089;-65
2024/02/14 09:22:38;;;;;;;24.13;9.48;;;9.20;99.90;;;;;;5062518;28;20070;-67
2024/02/14 09:25:04;;;;;;;27.63;10.15;;;9.30;99.90;;;;;;5062681;28;20100;-65
2024/02/14 09:27:31;;;;;;;25.70;8.98;;;9.30;99.90;;;;;;5064646;28;20036;-69
2024/02/14 09:29:56;;;;;;;27.30;9.70;;;9.30;99.90;;;;;;5065192;28;20017;-68
2024/02/14 09:32:22;;;;;;;24.17;8.77;;;9.40;99.90;;;;;;5063804;28;20036;-67
2024/02/14 09:34:47;;;;;;;22.85;8.77;;;9.40;99.90;;;;;;5065024;28;20027;-67
2024/02/14 09:37:13;;;;;;;23.67;8.77;;;9.40;99.90;;;;;;5065048;28;20068;-68
2024/02/14 09:39:39;;;;;;;23.52;8.85;;;9.40;99.90;;;;;;5064373;28;20047;-67
2024/02/14 09:42:09;;;;;;;24.00;8.38;;;9.50;99.90;;;;;;5064862;28;20096;-67
2024/02/14 09:44:37;;;;;;;24.52;8.88;;;9.50;99.90;;;;;;5057158;28;20033;-68
2024/02/14 09:47:04;;;;;;;36.13;10.15;;;9.50;99.90;;;;;;5060018;28;20462;-67
2024/02/14 09:49:31;;;;;;;29.63;10.20;;;9.50;99.90;;;;;;5062349;28;20037;-67
2024/02/14 09:51:58;;;;;;;26.02;9.23;;;9.50;99.90;;;;;;5063207;28;20592;-67
2024/02/14 09:54:25;;;;;;;28.10;9.98;;;9.60;99.90;;;;;;5062809;28;20013;-69
2024/02/14 09:56:53;;;;;;;33.22;10.35;;;9.60;99.90;;;;;;5061365;28;20037;-70
2024/02/14 09:59:22;;;;;;;32.20;11.25;;;9.60;99.90;;;;;;5061978;28;20095;-68
2024/02/14 10:01:50;;;;;;;33.10;10.68;;;9.70;99.90;;;;;;5060114;28;20040;-67
2024/02/14 10:04:17;;;;;;;36.65;12.38;;;9.70;99.90;;;;;;5064183;28;20018;-66
2024/02/14 10:06:43;;;;;;;34.50;12.07;;;9.70;99.90;;;;;;5063638;28;20049;-68
2024/02/14 10:09:10;;;;;;;36.25;11.90;;;9.80;99.90;;;;;;5063130;28;20036;-65
2024/02/14 10:11:36;;;;;;;32.30;12.18;;;9.90;99.90;;;;;;5061548;28;20069;-68
2024/02/14 10:14:07;;;;;;;36.80;11.75;;;9.90;99.90;;;;;;5062575;28;20052;-67
2024/02/14 10:16:35;;;;;;;36.42;12.43;;;10.00;99.90;;;;;;5062789;28;20036;-68
2024/02/14 10:19:00;;;;;;;38.80;13.60;;;10.00;99.90;;;;;;5062802;28;20021;-69
2024/02/14 10:21:28;;;;;;;34.28;12.93;;;10.00;99.90;;;;;;5063132;28;20060;-66
2024/02/14 10:23:56;;;;;;;37.80;12.88;;;10.00;99.90;;;;;;5063525;28;20021;-65
2024/02/14 10:26:22;;;;;;;37.88;12.48;;;10.10;99.90;;;;;;5063207;28;20084;-67
2024/02/14 10:28:49;;;;;;;36.10;12.10;;;10.10;99.90;;;;;;5063216;28;20079;-67
2024/02/14 10:31:15;;;;;;;38.67;13.48;;;10.10;99.90;;;;;;5063788;28;20039;-66
2024/02/14 10:33:41;;;;;;;37.38;13.07;;;10.10;99.90;;;;;;5063388;28;20041;-66
2024/02/14 10:36:12;;;;;;;38.20;13.65;;;10.10;99.90;;;;;;5062702;28;21033;-68
2024/02/14 10:38:40;;;;;;;34.30;13.30;;;10.10;99.90;;;;;;5062182;28;20501;-68
2024/02/14 10:41:05;;;;;;;33.17;12.88;;;10.20;99.90;;;;;;5063104;28;20040;-67
2024/02/14 10:43:31;;;;;;;33.88;13.65;;;10.20;99.90;;;;;;5061432;28;20025;-66
2024/02/14 10:46:03;;;;;;;35.72;14.15;;;10.20;99.90;;;;;;5061632;28;20033;-66
2024/02/14 10:48:34;;;;;;;38.72;14.18;;;10.30;99.90;;;;;;5059694;28;20037;-67
2024/02/14 10:51:04;;;;;;;31.80;12.43;;;10.30;99.90;;;;;;5062895;28;20465;-68
2024/02/14 10:53:34;;;;;;;33.15;12.93;;;10.30;99.90;;;;;;5063032;28;20021;-66
2024/02/14 10:56:02;;;;;;;35.78;12.57;;;10.40;99.90;;;;;;5061032;28;20472;-67
2024/02/14 10:58:29;;;;;;;33.88;13.35;;;10.40;99.90;;;;;;5062722;28;20462;-65
2024/02/14 11:00:55;;;;;;;27.02;11.82;;;10.40;99.90;;;;;;5061859;28;20040;-65
2024/02/14 11:03:22;;;;;;;35.25;13.82;;;10.40;99.90;;;;;;5060750;28;20036;-67
2024/02/14 11:05:49;;;;;;;34.50;13.18;;;10.30;99.90;;;;;;5059968;28;20470;-68
2024/02/14 11:08:18;;;;;;;33.17;12.93;;;10.40;99.90;;;;;;5062940;28;20386;-68
2024/02/14 11:10:51;;;;;;;32.85;13.45;;;10.40;99.90;;;;;;5062747;28;20028;-66
2024/02/14 11:13:18;;;;;;;40.30;14.00;;;10.40;99.90;;;;;;5063055;28;20017;-65
2024/02/14 11:15:49;;;;;;;34.38;13.52;;;10.40;99.90;;;;;;5063201;28;20258;-64
2024/02/14 11:18:25;;;;;;;31.80;13.40;;;10.40;99.90;;;;;;5061854;28;20037;-68
2024/02/14 11:20:50;;;;;;;44.45;15.23;;;10.40;99.90;;;;;;5062722;28;20104;-65
2024/02/14 11:23:22;;;;;;;41.63;15.43;;;10.40;99.90;;;;;;5058088;28;20063;-67
2024/02/14 11:25:51;;;;;;;49.95;17.55;;;10.40;99.90;;;;;;5060773;28;20029;-67
2024/02/14 11:28:25;;;;;;;52.38;19.90;;;10.40;99.90;;;;;;5061608;28;20040;-67
2024/02/14 11:30:51;;;;;;;54.92;20.40;;;10.40;99.90;;;;;;5059215;28;20523;-67
2024/02/14 11:33:21;;;;;;;51.15;20.40;;;10.40;99.90;;;;;;5060873;28;20033;-67
2024/02/14 11:35:53;;;;;;;58.35;21.13;;;10.40;99.90;;;;;;5060880;28;20047;-66
2024/02/14 11:38:29;;;;;;;58.63;22.73;;;10.40;99.90;;;;;;5055660;28;20017;-66
2024/02/14 11:40:56;;;;;;;61.47;24.20;;;10.30;99.90;;;;;;5059022;28;20021;-67
2024/02/14 11:43:23;;;;;;;59.03;21.40;;;10.40;99.90;;;;;;5059847;28;20056;-66
2024/02/14 11:45:54;;;;;;;68.22;25.58;;;10.40;99.90;;;;;;5060495;28;20088;-65
2024/02/14 11:48:23;;;;;;;52.97;21.10;;;10.40;99.90;;;;;;5061829;28;20037;-66
2024/02/14 11:50:49;;;;;;;61.42;23.50;;;10.30;99.90;;;;;;5057086;28;20017;-66
2024/02/14 11:53:21;;;;;;;64.97;24.15;;;10.40;99.90;;;;;;5060950;28;20375;-66
2024/02/14 11:55:47;;;;;;;53.22;22.08;;;10.40;99.90;;;;;;5060488;28;20032;-68
2024/02/14 11:58:14;;;;;;;54.33;22.05;;;10.40;99.90;;;;;;5061709;28;20029;-66
2024/02/14 12:00:41;;;;;;;49.30;21.02;;;10.40;99.90;;;;;;5061763;28;20096;-66
2024/02/14 12:03:08;;;;;;;54.20;21.85;;;10.40;99.90;;;;;;5060536;28;20025;-66
2024/02/14 12:05:36;;;;;;;48.90;20.50;;;10.30;99.90;;;;;;5060366;28;20036;-66
2024/02/14 12:08:02;;;;;;;44.75;19.67;;;10.40;99.90;;;;;;5060704;28;20592;-66
2024/02/14 12:10:30;;;;;;;47.83;20.45;;;10.40;99.90;;;;;;5060853;28;20021;-67
2024/02/14 12:12:56;;;;;;;41.05;19.33;;;10.40;99.90;;;;;;5061128;28;20052;-67
2024/02/14 12:15:21;;;;;;;42.33;17.67;;;10.40;99.90;;;;;;5060214;28;20462;-66
2024/02/14 12:17:49;;;;;;;42.95;19.52;;;10.40;99.90;;;;;;5061483;28;20074;-66
2024/02/14 12:20:16;;;;;;;42.72;18.13;;;10.40;99.90;;;;;;5061635;28;20056;-67
2024/02/14 12:22:41;;;;;;;40.90;18.38;;;10.40;99.90;;;;;;5061446;28;20114;-65
2024/02/14 12:25:10;;;;;;;45.35;18.67;;;10.40;99.90;;;;;;5061552;28;20044;-68
2024/02/14 12:27:37;;;;;;;42.63;17.85;;;10.40;99.90;;;;;;5061279;28;20033;-67
2024/02/14 12:30:10;;;;;;;43.28;19.30;;;10.40;99.90;;;;;;5059484;28;20097;-67
2024/02/14 12:32:35;;;;;;;42.05;19.08;;;10.40;99.90;;;;;;5060098;28;20059;-68